Time;durP1;ratioP1;P1;durP2;ratioP2;P2;SDS_P1;SDS_P2;PMS_P1;PMS_P2;Temp;Humidity;BMP_temperature;BMP_pressure;BME280_temperature;BME280_humidity;BME280_pressure;Samples;Min_cycle;Max_cycle;Signal;HPM_P1;HPM_P2
2023/09/19 00:01:30;;;;;;;1.40;1.30;;;23.50;66.80;;;;;;4989739;28;20907;-49
2023/09/19 00:04:23;;;;;;;2.50;1.67;;;23.50;66.60;;;;;;5008943;28;20460;-49
2023/09/19 00:07:10;;;;;;;1.60;1.37;;;23.50;66.70;;;;;;4997426;28;20453;-49
2023/09/19 00:09:57;;;;;;;1.87;1.43;;;23.50;66.60;;;;;;4981122;28;20449;-50
2023/09/19 00:12:44;;;;;;;2.30;1.30;;;23.50;66.90;;;;;;4995654;28;20988;-51
2023/09/19 00:15:33;;;;;;;1.90;1.50;;;23.50;66.50;;;;;;5004877;28;20459;-51
2023/09/19 00:18:21;;;;;;;3.13;1.30;;;23.40;66.00;;;;;;4993232;28;21029;-51
2023/09/19 00:21:11;;;;;;;1.90;1.50;;;23.50;66.50;;;;;;4969962;28;21018;-51
2023/09/19 00:23:58;;;;;;;3.60;1.63;;;23.40;66.40;;;;;;4982385;28;21105;-51
2023/09/19 00:26:46;;;;;;;2.50;1.50;;;23.40;66.10;;;;;;4987002;28;20445;-50
2023/09/19 00:29:35;;;;;;;1.53;1.33;;;23.40;66.80;;;;;;4981718;28;20551;-51
2023/09/19 00:32:22;;;;;;;3.57;1.40;;;23.40;66.70;;;;;;4993080;28;20479;-51
2023/09/19 00:35:10;;;;;;;1.93;1.30;;;23.40;66.30;;;;;;5002851;28;20475;-51
2023/09/19 00:37:58;;;;;;;1.70;1.57;;;23.40;66.50;;;;;;4991855;28;20939;-51
2023/09/19 00:40:45;;;;;;;2.00;1.77;;;23.40;66.70;;;;;;4988323;28;20445;-51
2023/09/19 00:43:34;;;;;;;2.30;1.50;;;23.40;66.10;;;;;;4985273;28;20583;-51
2023/09/19 00:46:22;;;;;;;1.77;1.60;;;23.40;66.40;;;;;;4983798;28;20488;-51
2023/09/19 00:49:10;;;;;;;1.60;1.27;;;23.40;66.30;;;;;;5001896;28;20464;-51
2023/09/19 00:51:57;;;;;;;9.43;2.77;;;23.40;65.80;;;;;;5005187;28;20499;-51
2023/09/19 00:54:46;;;;;;;3.40;1.73;;;23.40;65.80;;;;;;5005007;28;20639;-50
2023/09/19 00:57:34;;;;;;;3.30;1.40;;;23.40;66.00;;;;;;5002943;28;20563;-51
2023/09/19 01:00:21;;;;;;;1.50;1.20;;;23.40;65.80;;;;;;5004316;28;20519;-51
2023/09/19 01:03:09;;;;;;;2.70;1.60;;;23.40;66.10;;;;;;5002485;28;20929;-50
2023/09/19 01:05:57;;;;;;;2.23;1.17;;;23.40;66.00;;;;;;5000329;28;20448;-50
2023/09/19 01:08:44;;;;;;;3.90;1.43;;;23.40;66.10;;;;;;5006047;28;20472;-51
2023/09/19 01:11:39;;;;;;;1.77;1.30;;;23.30;65.90;;;;;;4995089;28;20455;-51
2023/09/19 01:14:34;;;;;;;1.80;1.30;;;23.30;66.00;;;;;;5001373;28;20598;-51
2023/09/19 01:17:28;;;;;;;3.17;1.60;;;23.30;65.90;;;;;;5004015;28;20479;-50
2023/09/19 01:20:23;;;;;;;3.63;1.13;;;23.30;65.60;;;;;;5001093;28;20464;-51
2023/09/19 01:23:21;;;;;;;2.70;1.47;;;23.30;65.50;;;;;;5004390;28;20547;-51
2023/09/19 01:26:40;;;;;;;3.90;1.87;;;23.30;65.90;;;;;;5007226;28;20448;-51
2023/09/19 01:29:38;;;;;;;4.93;1.67;;;23.30;65.80;;;;;;4977053;28;20996;-51
2023/09/19 01:32:27;;;;;;;2.40;1.63;;;23.30;65.60;;;;;;4987901;28;20490;-51
2023/09/19 01:35:13;;;;;;;3.33;1.50;;;23.30;65.80;;;;;;4978396;28;20675;-51
2023/09/19 01:38:00;;;;;;;4.30;1.63;;;23.30;65.80;;;;;;4999056;28;20475;-50
2023/09/19 01:40:55;;;;;;;2.40;1.40;;;23.30;66.00;;;;;;5009208;28;20439;-51
2023/09/19 01:43:43;;;;;;;1.73;1.37;;;23.30;66.00;;;;;;4992087;28;20522;-51
2023/09/19 01:46:36;;;;;;;1.50;1.30;;;23.30;66.10;;;;;;4992120;28;20441;-51
2023/09/19 01:49:34;;;;;;;2.40;1.27;;;23.30;65.70;;;;;;4989136;28;20463;-51
2023/09/19 01:52:26;;;;;;;1.80;1.20;;;23.30;65.90;;;;;;5010518;28;20456;-51
2023/09/19 01:55:17;;;;;;;2.50;1.53;;;23.30;66.00;;;;;;5008281;28;20980;-51
2023/09/19 01:58:09;;;;;;;2.10;1.50;;;23.30;65.90;;;;;;5000996;28;20467;-51
2023/09/19 02:00:59;;;;;;;3.47;1.50;;;23.20;65.70;;;;;;5013953;28;20408;-51
2023/09/19 02:03:48;;;;;;;1.87;1.47;;;23.20;65.50;;;;;;5015223;28;20480;-51
2023/09/19 02:06:37;;;;;;;4.90;1.50;;;23.20;65.70;;;;;;5014369;28;20541;-51
2023/09/19 02:09:24;;;;;;;2.20;1.30;;;23.20;65.80;;;;;;4989126;28;20535;-51
2023/09/19 02:12:10;;;;;;;2.93;1.43;;;23.20;65.80;;;;;;4993246;28;20464;-51
2023/09/19 02:14:57;;;;;;;3.10;1.23;;;23.20;65.90;;;;;;5006327;28;20575;-50
2023/09/19 02:17:46;;;;;;;3.13;1.50;;;23.20;65.90;;;;;;4996818;28;21049;-50
2023/09/19 02:20:33;;;;;;;1.60;1.20;;;23.20;65.80;;;;;;4989071;28;20583;-51
2023/09/19 02:23:22;;;;;;;2.73;1.47;;;23.20;66.10;;;;;;4990284;28;20997;-50
2023/09/19 02:26:08;;;;;;;3.67;1.40;;;23.20;65.70;;;;;;4987595;28;20445;-51
2023/09/19 02:28:55;;;;;;;3.53;1.80;;;23.20;65.90;;;;;;4981665;28;20504;-50
2023/09/19 02:31:42;;;;;;;2.80;1.67;;;23.20;65.80;;;;;;4988730;28;20440;-51
2023/09/19 02:34:28;;;;;;;1.77;1.23;;;23.20;65.80;;;;;;4984135;28;20445;-51
2023/09/19 02:37:16;;;;;;;2.17;1.07;;;23.20;66.30;;;;;;4989209;28;20472;-51
2023/09/19 02:40:18;;;;;;;2.80;1.80;;;23.20;65.70;;;;;;4988566;28;20441;-51
2023/09/19 02:43:06;;;;;;;4.40;1.60;;;23.10;65.60;;;;;;4968523;28;21025;-52
2023/09/19 02:45:54;;;;;;;3.53;1.77;;;23.20;65.80;;;;;;4990342;28;20436;-52
2023/09/19 02:48:41;;;;;;;2.20;1.23;;;23.10;65.70;;;;;;5000292;28;20544;-51
2023/09/19 02:51:29;;;;;;;1.93;1.10;;;23.10;65.60;;;;;;4998952;28;20515;-50
2023/09/19 02:54:15;;;;;;;2.80;1.30;;;23.10;65.90;;;;;;5011622;28;20752;-51
2023/09/19 02:57:06;;;;;;;2.17;1.10;;;23.10;65.50;;;;;;4998466;28;20899;-51
2023/09/19 02:59:54;;;;;;;3.23;1.33;;;23.10;65.50;;;;;;4983478;28;21009;-51
2023/09/19 03:02:43;;;;;;;2.87;1.60;;;23.10;65.90;;;;;;4987084;28;20532;-51
2023/09/19 03:05:31;;;;;;;1.10;0.90;;;23.10;65.50;;;;;;4984455;28;20548;-51
2023/09/19 03:08:18;;;;;;;3.80;1.43;;;23.10;66.00;;;;;;4986685;28;20460;-51
2023/09/19 03:11:11;;;;;;;3.33;1.70;;;23.10;65.50;;;;;;4990430;28;20444;-51
2023/09/19 03:14:00;;;;;;;3.33;1.40;;;23.00;65.60;;;;;;5005392;28;20484;-50
2023/09/19 03:16:47;;;;;;;3.43;1.27;;;23.10;66.50;;;;;;5008957;28;20452;-51
2023/09/19 03:19:34;;;;;;;3.10;1.30;;;23.00;65.60;;;;;;5006410;28;20452;-51
2023/09/19 03:22:22;;;;;;;2.50;1.37;;;23.00;65.50;;;;;;4984531;28;20681;-51
2023/09/19 03:25:11;;;;;;;2.10;1.43;;;23.00;66.00;;;;;;4968591;28;20938;-51
2023/09/19 03:28:00;;;;;;;3.43;1.27;;;23.00;65.90;;;;;;4972058;28;20480;-51
2023/09/19 03:31:00;;;;;;;1.77;1.30;;;23.00;65.80;;;;;;4987865;28;20472;-51
2023/09/19 03:33:47;;;;;;;1.57;1.10;;;23.00;65.70;;;;;;5000357;28;20474;-50
2023/09/19 03:36:34;;;;;;;2.30;1.47;;;23.00;65.60;;;;;;5002232;28;20527;-51
2023/09/19 03:39:21;;;;;;;4.53;1.17;;;23.00;65.40;;;;;;4992958;28;21067;-51
2023/09/19 03:42:08;;;;;;;3.57;1.60;;;23.00;65.70;;;;;;5001665;28;20599;-50
2023/09/19 03:44:55;;;;;;;2.03;1.20;;;23.00;65.70;;;;;;5003744;28;20452;-50
2023/09/19 03:47:44;;;;;;;3.87;1.33;;;23.00;65.80;;;;;;4991870;28;20830;-51
2023/09/19 03:50:30;;;;;;;4.07;1.60;;;23.00;65.80;;;;;;4991727;28;20572;-52
2023/09/19 03:53:17;;;;;;;3.10;1.20;;;23.00;65.20;;;;;;4993003;28;20472;-51
2023/09/19 03:56:04;;;;;;;2.87;1.47;;;23.00;65.30;;;;;;5002082;28;20440;-50
2023/09/19 03:58:52;;;;;;;3.57;1.63;;;23.00;65.60;;;;;;4981850;28;20476;-51
2023/09/19 04:01:41;;;;;;;1.20;1.10;;;23.00;65.30;;;;;;4993803;28;20440;-51
2023/09/19 04:04:30;;;;;;;2.33;1.20;;;23.00;65.50;;;;;;4989493;28;20460;-51
2023/09/19 04:07:16;;;;;;;2.33;0.93;;;22.90;65.60;;;;;;5006537;28;20539;-51
2023/09/19 04:10:04;;;;;;;2.70;1.07;;;22.90;65.30;;;;;;5001314;28;20566;-51
2023/09/19 04:12:54;;;;;;;2.23;1.20;;;23.00;65.80;;;;;;5006686;28;21008;-51
2023/09/19 04:15:41;;;;;;;2.20;1.23;;;22.90;65.40;;;;;;5004645;28;20464;-52
2023/09/19 04:18:30;;;;;;;2.67;1.20;;;22.90;65.40;;;;;;5006153;28;20488;-52
2023/09/19 04:21:19;;;;;;;5.07;1.27;;;22.90;65.30;;;;;;4989630;28;20510;-52
2023/09/19 04:24:06;;;;;;;2.20;1.10;;;22.90;64.90;;;;;;4987335;28;20469;-51
2023/09/19 04:26:53;;;;;;;2.00;1.20;;;22.90;65.40;;;;;;4984536;28;20487;-51
2023/09/19 04:29:41;;;;;;;3.77;1.60;;;22.90;65.40;;;;;;4981847;28;21034;-51
2023/09/19 04:32:29;;;;;;;2.40;1.67;;;22.90;65.20;;;;;;4985139;28;20617;-51
2023/09/19 04:35:17;;;;;;;3.30;1.87;;;22.90;65.10;;;;;;4984490;28;20461;-51
2023/09/19 04:38:06;;;;;;;3.80;1.33;;;22.90;65.40;;;;;;4993589;28;20530;-50
2023/09/19 04:40:58;;;;;;;3.43;1.33;;;22.80;65.60;;;;;;5008652;28;20440;-52
2023/09/19 04:43:45;;;;;;;6.47;1.33;;;22.80;65.20;;;;;;4985098;28;21049;-51
2023/09/19 04:46:32;;;;;;;2.57;1.30;;;22.80;64.90;;;;;;4986928;28;20908;-51
2023/09/19 04:49:19;;;;;;;4.40;1.40;;;22.80;65.10;;;;;;5008714;28;20491;-51
2023/09/19 04:52:06;;;;;;;2.07;1.13;;;22.80;65.30;;;;;;5004191;28;20486;-51
2023/09/19 04:54:55;;;;;;;3.87;1.50;;;22.80;65.30;;;;;;4981633;28;20699;-51
2023/09/19 04:57:42;;;;;;;2.53;1.60;;;22.80;65.70;;;;;;4987100;28;20524;-51
2023/09/19 05:00:30;;;;;;;2.87;1.30;;;22.80;65.30;;;;;;4983689;28;20931;-51
2023/09/19 05:03:20;;;;;;;3.30;1.40;;;22.80;65.20;;;;;;4987545;28;20563;-51
2023/09/19 05:06:06;;;;;;;3.17;1.50;;;22.80;65.70;;;;;;4986377;28;21021;-51
2023/09/19 05:08:53;;;;;;;2.70;1.33;;;22.80;64.40;;;;;;4991068;28;20465;-50
2023/09/19 05:11:41;;;;;;;2.30;1.33;;;22.80;65.30;;;;;;4990784;28;20537;-50
2023/09/19 05:14:27;;;;;;;2.50;1.07;;;22.80;65.30;;;;;;5010738;28;20480;-50
2023/09/19 05:17:16;;;;;;;2.63;1.53;;;22.80;65.70;;;;;;5005598;28;20593;-51
2023/09/19 05:20:15;;;;;;;3.10;1.30;;;22.80;65.20;;;;;;4985248;28;20473;-50
2023/09/19 05:23:02;;;;;;;3.10;1.30;;;22.80;65.60;;;;;;4998079;28;20475;-51
2023/09/19 05:25:49;;;;;;;2.00;1.27;;;22.80;65.20;;;;;;5018584;28;20436;-51
2023/09/19 05:28:37;;;;;;;2.67;1.60;;;22.70;65.20;;;;;;4993000;28;20535;-49
2023/09/19 05:31:25;;;;;;;1.77;1.13;;;22.70;64.80;;;;;;4988298;28;20531;-51
2023/09/19 05:34:14;;;;;;;2.27;1.40;;;22.70;65.30;;;;;;5008929;28;20451;-51
2023/09/19 05:37:01;;;;;;;3.20;1.80;;;22.70;65.00;;;;;;5005237;28;20828;-51
2023/09/19 05:39:48;;;;;;;2.20;1.60;;;22.70;65.30;;;;;;5009763;28;20834;-51
2023/09/19 05:42:35;;;;;;;1.93;1.40;;;22.70;65.20;;;;;;5007359;28;20515;-51
2023/09/19 05:45:23;;;;;;;2.33;0.93;;;22.70;65.00;;;;;;5002759;28;20463;-51
2023/09/19 05:48:13;;;;;;;1.93;1.43;;;22.70;65.00;;;;;;5007205;28;20853;-51
2023/09/19 05:51:01;;;;;;;2.37;1.30;;;22.60;65.00;;;;;;5006067;28;20459;-51
2023/09/19 05:53:48;;;;;;;4.40;1.50;;;22.70;65.30;;;;;;5006294;28;20499;-51
2023/09/19 05:56:34;;;;;;;2.40;1.40;;;22.60;65.40;;;;;;5009780;28;20523;-51
2023/09/19 05:59:22;;;;;;;2.77;1.60;;;22.60;64.50;;;;;;4985754;28;20494;-52
2023/09/19 06:02:12;;;;;;;3.13;1.50;;;22.60;65.00;;;;;;4988686;28;20565;-51
2023/09/19 06:04:59;;;;;;;3.80;1.30;;;22.60;64.50;;;;;;4988634;28;20589;-51
2023/09/19 06:07:46;;;;;;;3.00;1.20;;;22.50;64.80;;;;;;4989782;28;20515;-51
2023/09/19 06:10:34;;;;;;;3.80;1.70;;;22.60;65.10;;;;;;4991415;28;20445;-51
2023/09/19 06:13:20;;;;;;;2.60;1.47;;;22.60;65.00;;;;;;4984486;28;20485;-52
2023/09/19 06:16:09;;;;;;;3.30;1.90;;;22.60;65.00;;;;;;4984815;28;20476;-50
2023/09/19 06:18:59;;;;;;;2.43;1.30;;;22.50;64.80;;;;;;4983535;28;20601;-51
2023/09/19 06:21:46;;;;;;;5.50;2.00;;;22.50;64.20;;;;;;4990226;28;20460;-51
2023/09/19 06:24:33;;;;;;;3.17;1.43;;;22.50;64.70;;;;;;5003084;28;20525;-51
2023/09/19 06:27:19;;;;;;;3.47;1.40;;;22.50;65.00;;;;;;4989695;28;20469;-50
2023/09/19 06:30:07;;;;;;;3.40;1.50;;;22.50;64.70;;;;;;4985351;28;20549;-51
2023/09/19 06:32:58;;;;;;;2.50;1.40;;;22.50;65.10;;;;;;4990079;28;20473;-51
2023/09/19 06:35:48;;;;;;;2.50;1.30;;;22.50;65.00;;;;;;4986920;28;20539;-51
2023/09/19 06:38:35;;;;;;;3.40;1.37;;;22.50;64.90;;;;;;4989913;28;20485;-51
2023/09/19 06:41:24;;;;;;;2.70;1.60;;;22.50;64.80;;;;;;4990144;28;21018;-52
2023/09/19 06:44:12;;;;;;;3.23;1.60;;;22.50;66.70;;;;;;5006607;28;20464;-53
2023/09/19 06:46:59;;;;;;;2.80;1.70;;;22.50;65.10;;;;;;5002164;28;20820;-51
2023/09/19 06:49:45;;;;;;;1.80;1.40;;;22.50;65.10;;;;;;5009367;28;20494;-52
2023/09/19 06:52:34;;;;;;;5.00;1.60;;;22.50;65.00;;;;;;5009074;28;20471;-51
2023/09/19 06:55:24;;;;;;;3.67;1.73;;;22.50;65.10;;;;;;5005338;28;21548;-51
2023/09/19 06:58:12;;;;;;;3.80;1.40;;;22.50;65.00;;;;;;5014480;28;20480;-51
2023/09/19 07:00:58;;;;;;;3.83;1.23;;;22.50;64.80;;;;;;5010755;28;20515;-51
2023/09/19 07:03:46;;;;;;;2.53;1.10;;;22.40;64.10;;;;;;5010383;28;20476;-51
2023/09/19 07:06:33;;;;;;;2.30;1.10;;;22.40;64.40;;;;;;5012615;28;20823;-51
2023/09/19 07:09:22;;;;;;;4.50;1.57;;;22.40;64.30;;;;;;5002995;28;20808;-52
2023/09/19 07:12:09;;;;;;;2.17;1.37;;;22.40;64.60;;;;;;5005980;28;20476;-52
2023/09/19 07:14:55;;;;;;;5.40;1.27;;;22.40;64.20;;;;;;5004595;28;20860;-52
2023/09/19 07:17:42;;;;;;;3.40;1.47;;;22.40;64.40;;;;;;5007844;28;20639;-52
2023/09/19 07:20:31;;;;;;;2.20;1.20;;;22.40;64.00;;;;;;5000552;28;20491;-52
2023/09/19 07:23:21;;;;;;;2.33;1.50;;;22.40;64.40;;;;;;5007436;28;20559;-51
2023/09/19 07:26:09;;;;;;;3.73;1.30;;;22.40;64.60;;;;;;5007519;28;20654;-50
2023/09/19 07:28:57;;;;;;;4.40;1.60;;;22.40;64.80;;;;;;4983408;28;21413;-52
2023/09/19 07:31:44;;;;;;;2.00;1.30;;;22.40;64.50;;;;;;4989551;28;20433;-52
2023/09/19 07:34:31;;;;;;;4.73;1.97;;;22.40;64.50;;;;;;4986726;28;20882;-52
2023/09/19 07:37:18;;;;;;;3.13;1.70;;;22.40;64.80;;;;;;4988834;28;20512;-51
2023/09/19 07:40:06;;;;;;;3.90;1.13;;;22.30;64.20;;;;;;4989354;28;20874;-50
2023/09/19 07:42:54;;;;;;;3.17;1.60;;;22.40;64.50;;;;;;4990936;28;21004;-50
2023/09/19 07:45:41;;;;;;;2.50;1.30;;;22.40;64.30;;;;;;5000996;28;20484;-52
2023/09/19 07:48:28;;;;;;;2.77;1.20;;;22.40;64.20;;;;;;4993746;28;20472;-50
2023/09/19 07:51:15;;;;;;;4.17;1.63;;;22.30;64.50;;;;;;4985385;28;20452;-49
2023/09/19 07:54:02;;;;;;;2.20;1.33;;;22.40;65.80;;;;;;5001443;28;20661;-50
2023/09/19 07:56:49;;;;;;;7.10;1.37;;;22.30;63.90;;;;;;5004489;28;20454;-51
2023/09/19 07:59:41;;;;;;;7.13;2.07;;;22.30;63.20;;;;;;5006821;28;21066;-51
2023/09/19 08:02:28;;;;;;;5.93;1.63;;;22.30;64.90;;;;;;4997817;28;20473;-50
2023/09/19 08:05:16;;;;;;;5.00;1.63;;;22.30;63.80;;;;;;4987237;28;21025;-51
2023/09/19 08:08:03;;;;;;;3.20;1.87;;;22.30;63.50;;;;;;4987725;28;21224;-50
2023/09/19 08:10:55;;;;;;;3.40;1.40;;;22.30;63.60;;;;;;4988443;28;20596;-50
2023/09/19 08:13:45;;;;;;;3.67;1.53;;;22.30;63.50;;;;;;4984197;28;21022;-50
2023/09/19 08:16:33;;;;;;;2.70;1.33;;;22.30;63.10;;;;;;4985219;28;20453;-49
2023/09/19 08:19:23;;;;;;;3.00;1.60;;;22.30;63.00;;;;;;4984903;28;20515;-50
2023/09/19 08:22:11;;;;;;;2.33;1.63;;;22.30;63.10;;;;;;4988410;28;20535;-50
2023/09/19 08:24:58;;;;;;;2.57;1.30;;;22.30;63.00;;;;;;4981751;28;20977;-50
2023/09/19 08:27:47;;;;;;;2.53;1.63;;;22.30;62.80;;;;;;4986245;28;20544;-50
2023/09/19 08:30:34;;;;;;;4.03;1.90;;;22.30;62.70;;;;;;4987301;28;20499;-50
2023/09/19 08:33:22;;;;;;;3.77;1.47;;;22.30;63.40;;;;;;4988637;28;20489;-50
2023/09/19 08:36:09;;;;;;;3.07;1.33;;;22.30;62.50;;;;;;4984380;28;20453;-50
2023/09/19 08:38:56;;;;;;;4.30;1.77;;;22.30;62.20;;;;;;5000251;28;20839;-50
2023/09/19 08:41:43;;;;;;;3.80;1.80;;;22.30;62.60;;;;;;5010181;28;20584;-50
2023/09/19 08:44:31;;;;;;;2.40;1.77;;;22.30;62.30;;;;;;4991916;28;20490;-50
2023/09/19 08:47:27;;;;;;;3.40;1.27;;;22.30;62.30;;;;;;4995808;28;20476;-50
2023/09/19 08:50:20;;;;;;;3.10;1.90;;;22.30;62.30;;;;;;5009615;28;20555;-50
2023/09/19 08:53:12;;;;;;;3.10;1.70;;;22.30;62.10;;;;;;5011825;28;20463;-50
2023/09/19 08:56:01;;;;;;;2.50;1.47;;;22.30;62.40;;;;;;5011510;28;20459;-49
2023/09/19 08:58:53;;;;;;;6.73;1.73;;;22.30;63.10;;;;;;5007641;28;20476;-49
2023/09/19 09:01:41;;;;;;;3.03;1.63;;;22.30;63.20;;;;;;5006963;28;20661;-49
2023/09/19 09:04:28;;;;;;;2.70;1.27;;;22.30;62.10;;;;;;4987375;28;20469;-50
2023/09/19 09:07:19;;;;;;;3.00;1.23;;;22.30;63.10;;;;;;4987043;28;20472;-50
2023/09/19 09:10:07;;;;;;;2.67;1.40;;;22.30;63.20;;;;;;4993186;28;20910;-50
2023/09/19 09:12:55;;;;;;;1.67;1.20;;;22.30;63.30;;;;;;4991880;28;20473;-50
2023/09/19 09:15:44;;;;;;;3.90;1.50;;;22.30;63.40;;;;;;4991056;28;20527;-50
2023/09/19 09:18:31;;;;;;;2.20;1.30;;;22.30;62.80;;;;;;5019247;28;20495;-50
2023/09/19 09:21:18;;;;;;;3.87;1.83;;;22.30;63.30;;;;;;5019225;28;20570;-50
2023/09/19 09:24:30;;;;;;;2.77;1.83;;;22.30;62.60;;;;;;4992548;28;20854;-50
2023/09/19 09:27:17;;;;;;;3.83;1.20;;;22.30;62.70;;;;;;4986530;28;20465;-50
2023/09/19 09:30:04;;;;;;;2.50;1.13;;;22.30;62.90;;;;;;4987297;28;20556;-50
2023/09/19 09:33:10;;;;;;;4.43;1.60;;;22.30;63.00;;;;;;4991265;28;20500;-50
2023/09/19 09:36:00;;;;;;;3.00;1.60;;;22.30;63.10;;;;;;4984488;28;20588;-50
2023/09/19 09:38:49;;;;;;;3.40;1.60;;;22.30;62.10;;;;;;4991166;28;20468;-50
2023/09/19 09:41:39;;;;;;;1.73;1.47;;;22.30;62.80;;;;;;4991715;28;20461;-50
2023/09/19 09:44:31;;;;;;;3.10;1.60;;;22.30;62.80;;;;;;4983174;28;20473;-50
2023/09/19 09:47:55;;;;;;;2.20;1.50;;;22.20;62.70;;;;;;4990069;28;20535;-50
2023/09/19 09:50:55;;;;;;;2.60;1.20;;;22.20;62.90;;;;;;4985688;28;21846;-50
2023/09/19 09:53:45;;;;;;;3.00;1.53;;;22.20;63.10;;;;;;4987476;28;20488;-50
2023/09/19 09:56:34;;;;;;;2.80;1.40;;;22.20;63.10;;;;;;4987057;28;20576;-50
2023/09/19 09:59:23;;;;;;;4.30;1.27;;;22.20;62.40;;;;;;4985437;28;20481;-50
2023/09/19 10:02:13;;;;;;;3.53;1.47;;;22.20;62.70;;;;;;4990078;28;20483;-50
2023/09/19 10:05:20;;;;;;;3.00;1.70;;;22.20;63.00;;;;;;5008569;28;20586;-50
2023/09/19 10:08:13;;;;;;;4.40;1.70;;;22.20;62.70;;;;;;5011894;28;20476;-50
2023/09/19 10:11:05;;;;;;;3.10;1.60;;;22.20;63.00;;;;;;5010196;28;20488;-50
2023/09/19 10:13:53;;;;;;;2.03;1.17;;;22.20;62.60;;;;;;4989574;28;20488;-50
2023/09/19 10:16:46;;;;;;;2.70;1.33;;;22.20;63.20;;;;;;4988894;28;20468;-50
2023/09/19 10:19:39;;;;;;;2.63;1.40;;;22.20;63.30;;;;;;4988012;28;20487;-50
2023/09/19 10:22:30;;;;;;;2.63;1.50;;;22.20;61.70;;;;;;4996262;28;20460;-50
2023/09/19 10:25:20;;;;;;;3.13;1.80;;;22.20;63.00;;;;;;5010035;28;20522;-50
2023/09/19 10:28:10;;;;;;;2.40;1.47;;;22.20;62.50;;;;;;4991812;28;20945;-50
2023/09/19 10:31:01;;;;;;;2.57;1.40;;;22.20;63.10;;;;;;4984094;28;20437;-50
2023/09/19 10:33:50;;;;;;;2.70;1.50;;;22.20;62.80;;;;;;4988875;28;20504;-50
2023/09/19 10:36:38;;;;;;;3.40;1.73;;;22.20;62.30;;;;;;4987398;28;20588;-50
2023/09/19 10:39:26;;;;;;;4.40;2.00;;;22.20;61.20;;;;;;5009954;28;20967;-50
2023/09/19 10:42:17;;;;;;;2.93;1.40;;;22.20;61.40;;;;;;5005477;28;20473;-50
2023/09/19 10:45:12;;;;;;;2.43;1.73;;;22.20;61.70;;;;;;4977181;28;20473;-50
2023/09/19 10:48:00;;;;;;;2.43;1.27;;;22.20;62.10;;;;;;4983231;28;20473;-51
2023/09/19 10:50:51;;;;;;;2.40;1.30;;;22.20;61.60;;;;;;4987068;28;20473;-50
2023/09/19 10:53:46;;;;;;;3.97;1.63;;;22.20;62.30;;;;;;4989989;28;20888;-50
2023/09/19 10:56:38;;;;;;;2.30;1.57;;;22.20;61.80;;;;;;4989716;28;20437;-50
2023/09/19 10:59:25;;;;;;;2.63;1.40;;;22.20;61.60;;;;;;4985524;28;20477;-51
2023/09/19 11:02:18;;;;;;;3.80;1.57;;;22.20;61.50;;;;;;4989702;28;20453;-50
2023/09/19 11:05:13;;;;;;;2.80;1.40;;;22.10;61.30;;;;;;4981014;28;20444;-50
2023/09/19 11:08:03;;;;;;;2.80;1.60;;;22.10;60.50;;;;;;4988276;28;20469;-50
2023/09/19 11:10:51;;;;;;;3.07;1.57;;;22.10;60.90;;;;;;4989671;28;20452;-50
2023/09/19 11:13:41;;;;;;;2.70;1.20;;;22.10;60.60;;;;;;4986434;28;20476;-50
2023/09/19 11:16:28;;;;;;;2.60;1.47;;;22.10;60.00;;;;;;4988778;28;20974;-50
2023/09/19 11:19:16;;;;;;;2.03;1.60;;;22.10;60.10;;;;;;4992341;28;20468;-50
2023/09/19 11:22:06;;;;;;;2.50;1.40;;;22.10;60.80;;;;;;4997099;28;21882;-50
2023/09/19 11:24:56;;;;;;;3.23;1.90;;;22.10;60.00;;;;;;5005378;28;20482;-50
2023/09/19 11:28:28;;;;;;;2.00;1.47;;;22.10;60.00;;;;;;4994226;28;21119;-50
2023/09/19 11:31:53;;;;;;;2.60;1.60;;;22.10;60.00;;;;;;4983434;28;20460;-50
2023/09/19 11:34:50;;;;;;;2.97;1.40;;;22.10;59.00;;;;;;4981799;28;20753;-50
2023/09/19 11:38:16;;;;;;;4.00;1.83;;;22.10;60.80;;;;;;4982345;28;20477;-50
2023/09/19 11:41:37;;;;;;;2.80;1.00;;;22.10;59.50;;;;;;4982286;28;20581;-50
2023/09/19 11:44:38;;;;;;;1.90;1.43;;;22.10;59.30;;;;;;4980611;28;20572;-50
2023/09/19 11:47:25;;;;;;;3.70;1.80;;;22.10;59.10;;;;;;4993152;28;20467;-51
2023/09/19 11:50:20;;;;;;;4.00;2.13;;;22.00;59.40;;;;;;5000642;28;20452;-50
2023/09/19 11:53:07;;;;;;;2.03;1.40;;;22.00;60.70;;;;;;5007433;28;20515;-50
2023/09/19 11:55:54;;;;;;;3.10;1.63;;;22.00;59.60;;;;;;5006481;28;20452;-50
2023/09/19 11:58:42;;;;;;;2.87;1.53;;;22.10;60.00;;;;;;5005029;28;20546;-50
2023/09/19 12:01:32;;;;;;;1.90;1.20;;;22.00;59.60;;;;;;5007918;28;20464;-50
2023/09/19 12:04:32;;;;;;;4.50;1.40;;;22.00;59.40;;;;;;4985473;28;20460;-50
2023/09/19 12:07:21;;;;;;;3.50;1.87;;;22.00;59.40;;;;;;4986289;28;20557;-50
2023/09/19 12:10:11;;;;;;;3.97;2.00;;;22.00;60.00;;;;;;4981883;28;20449;-50
2023/09/19 12:12:59;;;;;;;2.20;1.43;;;22.00;60.00;;;;;;4995276;28;20484;-50
2023/09/19 12:15:47;;;;;;;2.37;1.27;;;22.00;60.10;;;;;;5001779;28;20839;-50
2023/09/19 12:18:35;;;;;;;2.63;1.63;;;22.00;60.20;;;;;;4988759;28;20485;-50
2023/09/19 12:21:31;;;;;;;2.03;1.10;;;22.00;60.50;;;;;;4986149;28;20508;-50
2023/09/19 12:24:19;;;;;;;2.90;1.50;;;22.00;60.30;;;;;;4987321;28;20472;-50
2023/09/19 12:27:07;;;;;;;2.80;1.20;;;22.00;60.60;;;;;;4988145;28;20479;-50
2023/09/19 12:29:55;;;;;;;2.80;1.97;;;22.00;59.80;;;;;;5008095;28;20800;-50
2023/09/19 12:32:42;;;;;;;5.17;1.50;;;22.00;59.50;;;;;;4999250;28;20485;-50
2023/09/19 12:35:30;;;;;;;2.93;1.43;;;22.00;60.30;;;;;;4985080;28;20607;-50
2023/09/19 12:38:25;;;;;;;2.33;1.33;;;22.00;59.00;;;;;;4987619;28;20472;-50
2023/09/19 12:41:13;;;;;;;5.90;1.57;;;22.00;59.50;;;;;;4982506;28;20973;-50
2023/09/19 12:44:00;;;;;;;2.10;1.37;;;22.10;60.10;;;;;;4998813;28;20558;-50
2023/09/19 12:46:47;;;;;;;2.77;1.60;;;22.00;59.70;;;;;;5005697;28;20463;-50
2023/09/19 12:49:34;;;;;;;2.07;1.30;;;22.10;59.90;;;;;;4984323;28;20461;-50
2023/09/19 12:52:20;;;;;;;5.57;1.63;;;22.00;60.00;;;;;;4992120;28;20467;-52
2023/09/19 12:55:08;;;;;;;2.87;1.07;;;22.00;59.80;;;;;;5007837;28;20447;-50
2023/09/19 12:58:09;;;;;;;1.70;1.43;;;22.00;60.30;;;;;;4990101;28;20609;-49
2023/09/19 13:00:56;;;;;;;1.93;1.37;;;22.00;60.00;;;;;;4982044;28;21000;-50
2023/09/19 13:03:42;;;;;;;4.20;1.57;;;22.10;59.90;;;;;;4986383;28;20612;-50
2023/09/19 13:06:38;;;;;;;2.30;1.77;;;22.10;60.20;;;;;;4981065;28;20471;-50
2023/09/19 13:09:31;;;;;;;3.20;1.57;;;22.00;59.80;;;;;;5001553;28;20461;-50
2023/09/19 13:12:37;;;;;;;1.50;1.13;;;22.10;59.90;;;;;;4982630;28;20513;-50
2023/09/19 13:15:29;;;;;;;2.23;1.30;;;22.10;59.50;;;;;;4979690;28;20536;-50
2023/09/19 13:18:18;;;;;;;2.83;1.37;;;22.00;59.50;;;;;;4989880;28;20569;-50
2023/09/19 13:21:10;;;;;;;1.73;1.40;;;22.00;59.60;;;;;;5002979;28;20452;-50
2023/09/19 13:24:17;;;;;;;3.00;1.20;;;22.00;58.90;;;;;;4994711;28;20471;-50
2023/09/19 13:27:06;;;;;;;3.00;1.33;;;22.00;59.30;;;;;;4992141;28;20440;-50
2023/09/19 13:29:53;;;;;;;5.20;1.27;;;22.10;59.10;;;;;;5006412;28;21001;-50
2023/09/19 13:32:43;;;;;;;1.63;1.20;;;22.10;61.00;;;;;;5007434;28;20506;-50
2023/09/19 13:35:30;;;;;;;5.70;1.33;;;22.10;59.70;;;;;;4997593;28;20489;-50
2023/09/19 13:38:17;;;;;;;4.43;1.30;;;22.10;60.20;;;;;;5009337;28;20539;-50
2023/09/19 13:41:06;;;;;;;1.33;1.13;;;22.10;59.80;;;;;;5000457;28;20436;-50
2023/09/19 13:43:53;;;;;;;2.93;1.43;;;22.10;59.90;;;;;;4978408;28;20527;-50
2023/09/19 13:46:40;;;;;;;2.43;1.53;;;22.10;59.70;;;;;;4989302;28;20460;-50
2023/09/19 13:49:31;;;;;;;1.70;1.13;;;22.10;59.60;;;;;;4985396;28;20464;-50
2023/09/19 13:52:18;;;;;;;2.00;1.10;;;22.10;60.00;;;;;;4994993;28;20475;-50
2023/09/19 13:55:06;;;;;;;2.10;1.30;;;22.10;59.80;;;;;;5010790;28;20563;-50
2023/09/19 13:57:55;;;;;;;1.47;1.20;;;22.10;59.90;;;;;;5000842;28;20567;-50
2023/09/19 14:00:42;;;;;;;1.80;1.20;;;22.10;59.90;;;;;;4983431;28;20970;-50
2023/09/19 14:03:31;;;;;;;3.10;1.17;;;22.10;59.70;;;;;;4977665;28;20472;-50
2023/09/19 14:06:19;;;;;;;1.57;0.93;;;22.10;60.10;;;;;;4981236;28;20823;-50
2023/09/19 14:09:07;;;;;;;2.50;1.03;;;22.10;60.20;;;;;;4984386;28;21009;-50
2023/09/19 14:11:54;;;;;;;3.33;1.13;;;22.10;60.10;;;;;;4976214;28;20429;-51
2023/09/19 14:14:42;;;;;;;1.63;1.20;;;22.10;59.90;;;;;;4982915;28;20482;-50
2023/09/19 14:17:29;;;;;;;2.63;1.30;;;22.10;59.90;;;;;;4995453;28;20500;-50
2023/09/19 14:20:16;;;;;;;3.10;1.37;;;22.10;60.00;;;;;;4995435;28;20623;-50
2023/09/19 14:23:04;;;;;;;1.60;1.10;;;22.10;59.90;;;;;;4986461;28;20473;-50
2023/09/19 14:25:51;;;;;;;2.70;0.97;;;22.10;59.70;;;;;;4989229;28;20524;-50
2023/09/19 14:28:39;;;;;;;1.90;1.30;;;22.10;59.80;;;;;;4988778;28;20512;-50
2023/09/19 14:31:27;;;;;;;1.57;1.20;;;22.10;60.00;;;;;;4981363;28;20562;-50
2023/09/19 14:34:14;;;;;;;2.03;1.03;;;22.10;60.30;;;;;;4984937;28;20461;-50
2023/09/19 14:37:01;;;;;;;1.40;1.00;;;22.10;59.60;;;;;;4988471;28;20441;-50
2023/09/19 14:39:30;;;;;;;2.40;1.20;;;22.10;59.80;;;;;;4988308;28;20981;-50
2023/09/19 14:41:59;;;;;;;2.03;1.30;;;22.10;60.20;;;;;;4989966;28;20442;-50
2023/09/19 14:44:28;;;;;;;1.40;1.20;;;22.10;59.90;;;;;;4989874;28;21006;-50